Axminster, United Kingdom
Current Conditions -  °F | °C
As of 10:50 AM on Thursday 23 Oct 2014 (Local Time) from EGTE Reporting Station
Broken Clouds Broken Clouds  
Wind Chill: 55°   Ceiling: 1100
Heat Index: 55°   Visibility: 6mi
Dew Point: 54°   Wind: 9mph
Humidity: 94%   Direction: 180°S
Pressure: 30.12"   Gusts: NA
Location:  50.78°N, 3°W
Report Text: EGTE 230950Z 18008KT 9999 FEW007 BKN011 13/12 Q1020
Loading
Personal Weather Stations






























Interactive Weather Map New forecast layout! Learn more

10-Day Weather Forecast

Advertisements
Track Severe Weather on mobile